Flight Track Log - Related Links

Times and Time Zones

All times are in EDT time to prevent confusion due to time zone crossing. See the SWA472 flight status page for this flight to view local times or setup timezone preferences in your user account.

Time Position Orientation Groundspeed Altitude Reporting Facility
EDT Latitude Longitude Course Direction KTS MPH feet Rate Location/Type
Sun 02:08:23 PM 41.3211 -81.8633 184° South 255 293 4,300  Level Cleveland Center
Sun 02:08:59 PM 41.3175 -81.8161 96° East 256 295 6,300 2,750 Climbing Cleveland Center
Sun 02:09:59 PM 41.3122 -81.7139 94° East 291 335 8,700 2,250 Climbing Cleveland Center
Sun 02:10:59 PM 41.2739 -81.6025 115° Southeast 291 335 10,800 2,200 Climbing Cleveland Center
Sun 02:11:59 PM 41.2247 -81.4886 120° Southeast 315 362 13,100 2,150 Climbing Cleveland Center
Sun 02:12:59 PM 41.1797 -81.3831 120° Southeast 331 381 15,100 2,150 Climbing Cleveland Center
Sun 02:13:59 PM 41.1303 -81.2586 118° Southeast 371 427 17,400 2,050 Climbing Cleveland Center
Sun 02:14:59 PM 41.0453 -81.1778 144° Southeast 393 452 19,200 1,950 Climbing Cleveland Center
Sun 02:15:59 PM 40.9392 -81.1411 165° South 383 441 21,300 2,000 Climbing Cleveland Center
Sun 02:16:59 PM 40.8331 -81.1044 165° South 393 452 23,200 1,750 Climbing Cleveland Center
Sun 02:17:59 PM 40.7125 -81.0625 165° South 401 461 24,800 1,400 Climbing Cleveland Center
Sun 02:18:59 PM 40.6042 -81.0178 163° South 401 461 26,000 1,400 Climbing Cleveland Center
Sun 02:19:59 PM 40.5275 -80.9081 133° Southeast 393 452 27,600 1,500 Climbing Cleveland Center
Sun 02:20:59 PM 40.4694 -80.7769 120° Southeast 393 452 29,000 700 Climbing Cleveland Center
Sun 02:21:59 PM 40.4089 -80.6514 122° Southeast 405 466 29,000  Level Cleveland Center
Sun 02:22:59 PM 40.3486 -80.5231 122° Southeast 411 473 29,000  Level Cleveland Center
Sun 02:23:59 PM 40.2900 -80.4008 122° Southeast 411 473 29,000  Level Cleveland Center
Sun 02:24:59 PM 40.2253 -80.2758 124° Southeast 411 473 29,000  Level Cleveland Center
Sun 02:25:59 PM 40.1686 -80.1511 121° Southeast 403 464 29,000  Level Cleveland Center
Sun 02:26:59 PM 40.1094 -80.0239 121° Southeast 410 472 29,000  Level Cleveland Center
Sun 02:27:59 PM 40.0611 -79.9131 120° Southeast 410 472 29,000  Level Cleveland Center
Sun 02:28:59 PM 40.0019 -79.7917 122° Southeast 410 472 29,000  Level Cleveland Center
Sun 02:29:59 PM 39.9425 -79.6678 122° Southeast 410 472 29,000 -105 Level Cleveland Center
Sun 02:31:50 PM 39.8314 -79.4472 123° Southeast 393 452 28,700 -419 Descending Washington Center
Sun 02:32:51 PM 39.7556 -79.3406 133° Southeast 393 452 27,800 -934 Descending Washington Center
Sun 02:33:52 PM 39.6881 -79.2267 128° Southeast 398 458 26,800 -1,412 Descending Washington Center
Sun 02:34:50 PM 39.6228 -79.1100 126° Southeast 403 464 25,000 -1,664 Descending Washington Center
Sun 02:35:51 PM 39.6058 -78.9772 99° East 374 430 23,500 -1,636 Descending Washington Center
Sun 02:36:51 PM 39.5619 -78.8297 111° Southeast 386 444 21,700 -1,388 Descending Washington Center
Sun 02:37:52 PM 39.5383 -78.6994 103° East 386 444 20,700 -1,008 Descending Washington Center
Sun 02:38:50 PM 39.5167 -78.5669 102° East 381 438 19,700 -958 Descending Washington Center
Sun 02:39:51 PM 39.4928 -78.4342 103° East 376 433 18,800 -1,082 Descending Washington Center
Sun 02:40:52 PM 39.4706 -78.3069 103° East 376 433 17,500 -1,916 Descending Washington Center
Sun 02:41:50 PM 39.4425 -78.1661 104° East 381 438 15,000 -1,261 Descending Washington Center
Sun 02:42:51 PM 39.4328 -78.0314 95° East 381 438 15,000  Level Washington Center
Sun 02:43:51 PM 39.4353 -77.8997 89° East 375 432 15,000  Level Washington Center
Sun 02:44:52 PM 39.4378 -77.7681 89° East 364 419 15,000 -202 Level Washington Center
Sun 02:45:50 PM 39.4400 -77.6392 89° East 364 419 14,600 -958 Descending Washington Center
Sun 02:46:51 PM 39.4419 -77.5131 89° East 364 419 13,100 -1,672 Descending Washington Center
Sun 02:47:52 PM 39.4439 -77.3922 89° East 348 400 11,200 -1,135 Descending Washington Center
Sun 02:48:42 PM 39.4500 -77.3000 85° East 327 376 11,000 -164 Descending Potomac TRACON
Sun 02:49:42 PM 39.4667 -77.1833 79° East 334 384 10,900 -678 Descending Potomac TRACON
Sun 02:50:37 PM 39.4833 -77.0667 79° East 313 360 9,700 -1,409 Descending Potomac TRACON
Sun 02:51:37 PM 39.5000 -76.9667 78° East 295 339 8,200 -1,350 Descending Potomac TRACON
Sun 02:52:37 PM 39.5333 -76.8833 63° Northeast 279 321 7,000 -694 Descending Potomac TRACON
Sun 02:53:38 PM 39.5500 -76.7833 78° East 283 326 6,800 -744 Descending Potomac TRACON
Sun 02:54:38 PM 39.5167 -76.7000 117° Southeast 287 330 5,500 -1,053 Descending Potomac TRACON
Sun 02:55:32 PM 39.4500 -76.6333 142° Southeast 278 320 4,800 -750 Descending Potomac TRACON
Sun 02:56:38 PM 39.4000 -76.5667 134° Southeast 267 307 4,000 -397 Descending Potomac TRACON
Sun 02:57:33 PM 39.3500 -76.5167 142° Southeast 250 288 4,000  Level Potomac TRACON
Sun 02:58:33 PM 39.3000 -76.4833 153° Southeast 223 257 4,000  Level Potomac TRACON
Sun 02:59:33 PM 39.2333 -76.4333 150° Southeast 225 259 4,000  Level Potomac TRACON
Sun 03:00:33 PM 39.1833 -76.4000 153° Southeast 231 266 4,000 -298 Level Potomac TRACON
Sun 03:01:34 PM 39.1333 -76.4167 194° South 189 217 3,400 -522 Descending Potomac TRACON
Sun 03:02:28 PM 39.1000 -76.4667 229° Southwest 190 219 3,000 -522 Descending Potomac TRACON
Sun 03:03:29 PM 39.0667 -76.5167 229° Southwest 184 212 2,400 -496 Descending Potomac TRACON
Sun 03:04:29 PM 39.0667 -76.5667 270° West 196 226 2,000 -450 Descending Potomac TRACON
Sun 03:05:29 PM 39.1167 -76.6167 322° Northwest 167 192 1,500 -500 Descending Potomac TRACON

Login

Don't have an account? Register now (free) for customized features, flight alerts, and more!